Time;durP1;ratioP1;P1;durP2;ratioP2;P2;SDS_P1;SDS_P2;PMS_P1;PMS_P2;Temp;Humidity;BMP_temperature;BMP_pressure;BME280_temperature;BME280_humidity;BME280_pressure;Samples;Min_cycle;Max_cycle;Signal;HPM_P1;HPM_P2
2023/09/23 00:00:06;;;;;;;;;;;;;;;24.80;60.36;101369.69;5029465;28;19960;-84
2023/09/23 00:02:32;;;;;;;;;;;;;;;24.79;60.16;101360.78;5029264;28;20402;-84
2023/09/23 00:04:58;;;;;;;;;;;;;;;24.80;60.31;101367.03;5031803;28;20000;-84
2023/09/23 00:07:24;;;;;;;;;;;;;;;24.78;60.46;101368.78;5033678;28;19967;-84
2023/09/23 00:09:51;;;;;;;;;;;;;;;24.79;60.19;101370.59;5044930;28;19918;-84
2023/09/23 00:12:16;;;;;;;;;;;;;;;24.79;60.52;101383.94;5033128;28;19967;-84
2023/09/23 00:14:42;;;;;;;;;;;;;;;24.76;60.52;101375.91;5046381;28;19924;-84
2023/09/23 00:17:07;;;;;;;;;;;;;;;24.78;60.40;101367.00;5033714;28;19913;-84
2023/09/23 00:19:34;;;;;;;;;;;;;;;24.79;60.38;101360.78;5033116;28;19920;-84
2023/09/23 00:22:01;;;;;;;;;;;;;;;24.79;60.36;101362.56;5032302;28;19924;-84
2023/09/23 00:24:26;;;;;;;;;;;;;;;24.79;60.25;101365.25;5020618;28;19913;-84
2023/09/23 00:26:58;;;;;;;;;;;;;;;24.78;60.40;101369.69;5021828;28;20322;-84
2023/09/23 00:29:25;;;;;;;;;;;;;;;24.78;60.39;101372.34;5034424;28;19921;-84
2023/09/23 00:31:50;;;;;;;;;;;;;;;24.80;60.54;101367.03;5041744;28;19917;-85
2023/09/23 00:34:15;;;;;;;;;;;;;;;24.80;60.21;101361.69;5050854;28;20317;-84
2023/09/23 00:36:41;;;;;;;;;;;;;;;24.81;60.25;101360.81;5040476;28;20012;-84
2023/09/23 00:39:09;;;;;;;;;;;;;;;24.82;60.30;101364.38;5028960;28;19920;-84
2023/09/23 00:41:34;;;;;;;;;;;;;;;24.82;60.06;101367.91;5046533;28;19917;-84
2023/09/23 00:44:00;;;;;;;;;;;;;;;24.82;60.29;101356.34;5019885;28;20309;-85
2023/09/23 00:46:26;;;;;;;;;;;;;;;24.82;60.28;101359.91;5033558;28;20370;-85
2023/09/23 00:48:53;;;;;;;;;;;;;;;24.82;60.32;101353.69;5026813;28;19928;-85
2023/09/23 00:51:21;;;;;;;;;;;;;;;24.81;60.36;101362.56;5046616;28;19955;-84
2023/09/23 00:53:46;;;;;;;;;;;;;;;24.81;60.29;101354.56;5036470;28;19920;-84
2023/09/23 00:56:12;;;;;;;;;;;;;;;24.82;60.25;101353.69;5036187;28;20011;-84
2023/09/23 00:58:37;;;;;;;;;;;;;;;24.80;60.20;101348.31;5020577;28;19917;-84
2023/09/23 01:01:03;;;;;;;;;;;;;;;24.79;60.33;101346.56;5047772;28;19912;-86
2023/09/23 01:03:30;;;;;;;;;;;;;;;24.80;60.25;101361.69;5055290;28;19913;-86
2023/09/23 01:06:15;;;;;;;;;;;;;;;24.81;60.13;101351.88;5036794;28;20382;-85
2023/09/23 01:08:45;;;;;;;;;;;;;;;24.78;60.13;101350.97;5049309;28;19921;-86
2023/09/23 01:11:10;;;;;;;;;;;;;;;24.80;60.18;101356.34;5024315;28;19920;-86
2023/09/23 01:13:36;;;;;;;;;;;;;;;24.81;60.01;101357.22;5055094;28;19920;-86
2023/09/23 01:16:06;;;;;;;;;;;;;;;24.78;60.10;101356.31;5052455;28;19940;-85
2023/09/23 01:18:34;;;;;;;;;;;;;;;24.78;60.37;101353.66;5043412;28;19920;-84
2023/09/23 01:21:01;;;;;;;;;;;;;;;24.78;60.09;101358.09;5036818;28;19913;-84
2023/09/23 01:23:26;;;;;;;;;;;;;;;24.77;60.21;101351.88;5036392;28;20309;-85
2023/09/23 01:25:52;;;;;;;;;;;;;;;24.76;60.44;101352.78;5050438;28;19923;-85
2023/09/23 01:28:18;;;;;;;;;;;;;;;24.76;60.40;101358.13;5024859;28;19924;-86
2023/09/23 01:30:44;;;;;;;;;;;;;;;24.75;60.32;101348.31;5048454;28;19933;-85
2023/09/23 01:33:12;;;;;;;;;;;;;;;24.77;60.17;101353.66;5049930;28;19988;-85
2023/09/23 01:35:37;;;;;;;;;;;;;;;24.77;60.17;101348.31;5052316;28;19939;-85
2023/09/23 01:38:03;;;;;;;;;;;;;;;24.77;60.36;101348.31;5035921;28;20377;-86
2023/09/23 01:40:36;;;;;;;;;;;;;;;24.74;60.27;101351.88;5033841;28;20857;-85
2023/09/23 01:43:02;;;;;;;;;;;;;;;24.75;60.33;101344.75;5054010;28;20309;-85
2023/09/23 01:45:27;;;;;;;;;;;;;;;24.74;60.21;101357.22;5030278;28;19916;-85
2023/09/23 01:47:55;;;;;;;;;;;;;;;24.73;60.28;101354.53;5052458;28;19990;-85
2023/09/23 01:50:22;;;;;;;;;;;;;;;24.74;60.14;101353.63;5052418;28;20032;-85
2023/09/23 01:52:48;;;;;;;;;;;;;;;24.73;60.43;101360.75;5035024;28;20000;-85
2023/09/23 01:55:16;;;;;;;;;;;;;;;24.71;60.44;101359.84;5040828;28;20398;-85
2023/09/23 01:57:41;;;;;;;;;;;;;;;24.70;60.32;101367.84;5052977;28;20007;-85
2023/09/23 02:00:10;;;;;;;;;;;;;;;24.73;60.20;101359.88;5037845;28;20008;-85
2023/09/23 02:02:35;;;;;;;;;;;;;;;24.72;60.46;101360.75;5051231;28;19970;-85
2023/09/23 02:05:01;;;;;;;;;;;;;;;24.69;60.56;101358.97;5043809;28;20012;-85
2023/09/23 02:07:26;;;;;;;;;;;;;;;24.68;60.49;101359.84;5043376;28;20053;-85
2023/09/23 02:09:52;;;;;;;;;;;;;;;24.67;60.41;101350.03;5040340;28;19921;-85
2023/09/23 02:12:18;;;;;;;;;;;;;;;24.69;60.35;101358.97;5051557;28;19912;-86
2023/09/23 02:14:43;;;;;;;;;;;;;;;24.69;60.28;101347.38;5053798;28;19913;-85
2023/09/23 02:17:09;;;;;;;;;;;;;;;24.68;60.24;101361.59;5052411;28;19952;-86
2023/09/23 02:19:35;;;;;;;;;;;;;;;24.67;60.47;101358.06;5034324;28;19967;-83
2023/09/23 02:22:05;;;;;;;;;;;;;;;24.65;60.31;101351.81;5033880;28;19939;-84
2023/09/23 02:24:32;;;;;;;;;;;;;;;24.65;60.24;101351.81;5053606;28;20408;-85
2023/09/23 02:26:58;;;;;;;;;;;;;;;24.65;60.51;101354.47;5045662;28;19944;-84
2023/09/23 02:29:23;;;;;;;;;;;;;;;24.64;60.27;101359.81;5030352;28;19976;-86
2023/09/23 02:31:49;;;;;;;;;;;;;;;24.63;60.47;101361.59;5046194;28;19913;-86
2023/09/23 02:34:18;;;;;;;;;;;;;;;24.65;60.34;101366.94;5052947;28;20399;-84
2023/09/23 02:36:47;;;;;;;;;;;;;;;24.63;60.66;101371.38;5031611;28;20329;-85
2023/09/23 02:39:16;;;;;;;;;;;;;;;24.65;60.12;101364.28;5035469;28;19935;-85
2023/09/23 02:41:42;;;;;;;;;;;;;;;24.62;60.53;101367.84;5036184;28;20583;-84
2023/09/23 02:44:08;;;;;;;;;;;;;;;24.60;60.44;101356.25;5022190;28;19913;-85
2023/09/23 02:46:34;;;;;;;;;;;;;;;24.61;60.38;101355.34;5051351;28;20396;-84
2023/09/23 02:49:00;;;;;;;;;;;;;;;24.60;60.45;101356.25;5039245;28;19913;-86
2023/09/23 02:51:26;;;;;;;;;;;;;;;24.60;60.35;101353.56;5050868;28;20378;-86
2023/09/23 02:53:51;;;;;;;;;;;;;;;24.61;60.42;101359.81;5052990;28;20441;-85
2023/09/23 02:56:18;;;;;;;;;;;;;;;24.61;60.46;101367.81;5050343;28;19956;-84
2023/09/23 02:58:44;;;;;;;;;;;;;;;24.56;60.38;101366.00;5027146;28;19917;-86
2023/09/23 03:01:14;;;;;;;;;;;;;;;24.56;60.35;101365.13;5052134;28;20302;-84
2023/09/23 03:03:40;;;;;;;;;;;;;;;24.54;60.73;101357.09;5033492;28;19913;-84
2023/09/23 03:06:10;;;;;;;;;;;;;;;24.53;60.44;101374.00;5045324;28;20030;-84
2023/09/23 03:08:37;;;;;;;;;;;;;;;24.54;60.43;101378.47;5034818;28;19928;-84
2023/09/23 03:11:06;;;;;;;;;;;;;;;24.56;60.53;101379.38;5020617;28;19921;-85
2023/09/23 03:13:32;;;;;;;;;;;;;;;24.56;60.55;101375.81;5034589;28;20483;-86
2023/09/23 03:16:06;;;;;;;;;;;;;;;24.55;60.41;101376.66;5050985;28;19978;-86
2023/09/23 03:18:36;;;;;;;;;;;;;;;24.56;60.61;101382.03;5041983;28;19959;-85
2023/09/23 03:21:03;;;;;;;;;;;;;;;24.54;60.28;101390.94;5047092;28;19928;-86
2023/09/23 03:23:29;;;;;;;;;;;;;;;24.55;60.71;101387.34;5034608;28;20484;-85
2023/09/23 03:25:55;;;;;;;;;;;;;;;24.56;60.42;101384.69;5048764;28;20011;-86
2023/09/23 03:28:21;;;;;;;;;;;;;;;24.55;60.36;101393.63;5029903;28;19923;-84
2023/09/23 03:30:49;;;;;;;;;;;;;;;24.56;60.54;101397.16;5023168;28;19917;-85
2023/09/23 03:33:18;;;;;;;;;;;;;;;24.56;60.35;101394.50;5051440;28;20398;-86
2023/09/23 03:35:44;;;;;;;;;;;;;;;24.53;60.20;101398.03;5030178;28;19983;-86
2023/09/23 03:38:10;;;;;;;;;;;;;;;24.53;60.33;101403.38;5030849;28;19996;-86
2023/09/23 03:40:38;;;;;;;;;;;;;;;24.54;60.35;101398.94;5050334;28;19926;-87
2023/09/23 03:43:04;;;;;;;;;;;;;;;24.52;60.36;101400.69;5034042;28;20400;-86
2023/09/23 03:45:36;;;;;;;;;;;;;;;24.52;60.37;101406.03;5043988;28;19916;-86
2023/09/23 03:48:01;;;;;;;;;;;;;;;24.52;60.41;101406.03;5027815;28;19925;-86
2023/09/23 03:50:27;;;;;;;;;;;;;;;24.53;60.28;101407.81;5046178;28;19978;-86
2023/09/23 03:52:52;;;;;;;;;;;;;;;24.51;60.41;101410.50;5037339;28;20321;-84
2023/09/23 03:55:18;;;;;;;;;;;;;;;24.52;60.42;101419.38;5041768;28;20016;-84
2023/09/23 03:57:44;;;;;;;;;;;;;;;24.50;60.61;101415.81;5031294;28;19925;-84
2023/09/23 04:00:16;;;;;;;;;;;;;;;24.49;60.48;101416.69;5032262;28;19960;-85
2023/09/23 04:02:41;;;;;;;;;;;;;;;24.49;60.59;101414.00;5048741;28;20059;-87
2023/09/23 04:05:07;;;;;;;;;;;;;;;24.51;60.33;101406.91;5015651;28;20063;-85
2023/09/23 04:07:32;;;;;;;;;;;;;;;24.49;60.32;101412.25;5008620;28;19925;-87
2023/09/23 04:09:58;;;;;;;;;;;;;;;24.49;60.50;101408.66;5037487;28;19921;-85
2023/09/23 04:12:24;;;;;;;;;;;;;;;24.46;60.41;101412.19;5048248;28;19988;-85
2023/09/23 04:14:49;;;;;;;;;;;;;;;24.46;60.53;101406.84;5022994;28;20362;-86
2023/09/23 04:17:15;;;;;;;;;;;;;;;24.47;60.51;101411.31;5031028;28;20015;-87
2023/09/23 04:19:40;;;;;;;;;;;;;;;24.44;60.52;101413.94;5046919;28;20345;-86
2023/09/23 04:22:07;;;;;;;;;;;;;;;24.47;60.36;101418.41;5050201;28;19913;-87
2023/09/23 04:24:32;;;;;;;;;;;;;;;24.49;60.50;101419.34;5033647;28;19917;-87
2023/09/23 04:26:59;;;;;;;;;;;;;;;24.46;60.32;101425.53;5029661;28;19967;-86
2023/09/23 04:29:25;;;;;;;;;;;;;;;24.45;60.48;101425.53;5036243;28;20037;-85
2023/09/23 04:31:51;;;;;;;;;;;;;;;24.44;60.71;101432.63;5046192;28;20287;-85
2023/09/23 04:34:17;;;;;;;;;;;;;;;24.44;60.50;101424.63;5016537;28;19971;-85
2023/09/23 04:36:43;;;;;;;;;;;;;;;24.46;60.42;101424.66;5050469;28;20003;-86
2023/09/23 04:39:09;;;;;;;;;;;;;;;24.45;60.52;101423.75;5028631;28;20294;-86
2023/09/23 04:41:37;;;;;;;;;;;;;;;24.44;60.64;101418.41;5043066;28;20443;-86
2023/09/23 04:44:02;;;;;;;;;;;;;;;24.44;60.59;101423.75;5031961;28;19976;-86
2023/09/23 04:46:32;;;;;;;;;;;;;;;24.42;60.52;101420.16;5031942;28;19957;-88
2023/09/23 04:48:57;;;;;;;;;;;;;;;24.42;60.29;101423.72;5043768;28;19917;-88
2023/09/23 04:51:23;;;;;;;;;;;;;;;24.44;60.56;101424.63;5038722;28;20371;-87
2023/09/23 04:53:49;;;;;;;;;;;;;;;24.44;60.60;101429.09;5032415;28;19983;-87
2023/09/23 04:56:17;;;;;;;;;;;;;;;24.43;60.38;101429.97;5020343;28;19913;-87
2023/09/23 04:58:42;;;;;;;;;;;;;;;24.42;60.74;101430.84;5038953;28;19916;-86
2023/09/23 05:01:09;;;;;;;;;;;;;;;24.41;60.44;101429.97;5050005;28;19952;-86
2023/09/23 05:03:36;;;;;;;;;;;;;;;24.38;60.64;101438.84;5049104;28;19917;-87
2023/09/23 05:06:02;;;;;;;;;;;;;;;24.36;60.77;101431.69;5032359;28;20153;-86
2023/09/23 05:08:28;;;;;;;;;;;;;;;24.42;60.83;101439.75;5030419;28;19924;-87
2023/09/23 05:10:53;;;;;;;;;;;;;;;24.42;60.51;101433.53;5034658;28;20362;-86
2023/09/23 05:13:18;;;;;;;;;;;;;;;24.43;60.44;101438.88;5046281;28;19928;-88
2023/09/23 05:15:44;;;;;;;;;;;;;;;24.41;60.51;101435.31;5033318;28;19939;-86
2023/09/23 05:18:10;;;;;;;;;;;;;;;24.41;60.78;101437.97;5026162;28;20008;-86
2023/09/23 05:20:35;;;;;;;;;;;;;;;24.39;60.71;101442.41;5043166;28;20375;-88
2023/09/23 05:23:05;;;;;;;;;;;;;;;24.37;60.57;101444.16;5020232;28;20326;-86
2023/09/23 05:25:31;;;;;;;;;;;;;;;24.39;60.64;101453.97;5031962;28;19917;-85
2023/09/23 05:27:57;;;;;;;;;;;;;;;24.38;60.73;101444.19;5034633;28;19942;-87
2023/09/23 05:30:23;;;;;;;;;;;;;;;24.39;60.70;101445.97;5044812;28;20412;-86
2023/09/23 05:32:50;;;;;;;;;;;;;;;24.38;60.76;101440.59;5027796;28;19920;-89
2023/09/23 05:35:16;;;;;;;;;;;;;;;24.36;61.04;101447.69;5026694;28;19917;-85
2023/09/23 05:37:43;;;;;;;;;;;;;;;24.39;60.82;101448.63;5052750;28;20242;-87
2023/09/23 05:40:23;;;;;;;;;;;;;;;24.39;60.78;101447.75;5047947;28;20476;-87
2023/09/23 05:42:52;;;;;;;;;;;;;;;24.36;60.97;101448.63;5031190;28;20271;-88
2023/09/23 05:45:18;;;;;;;;;;;;;;;24.33;60.98;101450.38;5043255;28;19917;-88
2023/09/23 05:47:45;;;;;;;;;;;;;;;24.38;60.67;101448.59;5045345;28;19924;-86
2023/09/23 05:50:11;;;;;;;;;;;;;;;24.36;60.87;101445.03;5034917;28;21216;-87
2023/09/23 05:52:39;;;;;;;;;;;;;;;24.38;60.75;101452.19;5029621;28;19916;-87
2023/09/23 05:55:05;;;;;;;;;;;;;;;24.37;60.73;101457.50;5030362;28;19917;-88
2023/09/23 05:57:31;;;;;;;;;;;;;;;24.37;60.76;101463.75;5038100;28;19925;-89
2023/09/23 05:59:57;;;;;;;;;;;;;;;24.38;60.65;101460.22;5022105;28;19917;-88
2023/09/23 06:02:23;;;;;;;;;;;;;;;24.39;60.66;101461.97;5033133;28;20364;-87
2023/09/23 06:04:49;;;;;;;;;;;;;;;24.38;60.62;101465.53;5050477;28;19917;-88
2023/09/23 06:07:14;;;;;;;;;;;;;;;24.38;60.43;101462.88;5043284;28;20465;-86
2023/09/23 06:09:43;;;;;;;;;;;;;;;24.38;60.55;101468.22;5017843;28;19936;-88
2023/09/23 06:12:09;;;;;;;;;;;;;;;24.40;60.43;101473.53;5015478;28;19991;-87
2023/09/23 06:14:34;;;;;;;;;;;;;;;24.39;60.64;101470.00;5044020;28;20374;-87
2023/09/23 06:16:59;;;;;;;;;;;;;;;24.40;60.58;101473.53;5028140;28;19996;-87
2023/09/23 06:19:27;;;;;;;;;;;;;;;24.39;60.64;101472.66;5050753;28;19960;-88
2023/09/23 06:21:54;;;;;;;;;;;;;;;24.40;60.64;101478.88;5040845;28;19921;-88
2023/09/23 06:24:20;;;;;;;;;;;;;;;24.39;60.85;101480.66;5028033;28;19923;-88
2023/09/23 06:26:46;;;;;;;;;;;;;;;24.41;60.62;101480.69;5033007;28;19916;-88
2023/09/23 06:29:14;;;;;;;;;;;;;;;24.42;60.71;101478.91;5048146;28;20079;-88
2023/09/23 06:31:40;;;;;;;;;;;;;;;24.41;60.72;101479.81;5033933;28;20055;-86
2023/09/23 06:34:06;;;;;;;;;;;;;;;24.42;60.93;101479.78;5016928;28;20511;-88
2023/09/23 06:36:32;;;;;;;;;;;;;;;24.45;60.69;101489.59;5018577;28;20447;-86
2023/09/23 06:38:57;;;;;;;;;;;;;;;24.44;60.48;101485.16;5047429;28;19935;-85
2023/09/23 06:41:22;;;;;;;;;;;;;;;24.44;60.45;101486.03;5050998;28;19948;-88
2023/09/23 06:43:51;;;;;;;;;;;;;;;24.46;60.38;101491.41;5030734;28;19990;-90
2023/09/23 06:46:16;;;;;;;;;;;;;;;24.47;60.40;101493.16;5015460;28;19959;-89
2023/09/23 06:48:42;;;;;;;;;;;;;;;24.47;60.53;101490.50;5032492;28;19964;-88
2023/09/23 06:51:08;;;;;;;;;;;;;;;24.48;60.21;101493.19;5049122;28;19978;-89
2023/09/23 06:53:34;;;;;;;;;;;;;;;24.47;60.59;101488.75;5030594;28;19924;-88
2023/09/23 06:55:59;;;;;;;;;;;;;;;24.49;60.37;101494.13;5031225;28;19917;-89
2023/09/23 06:58:25;;;;;;;;;;;;;;;24.50;60.27;101498.59;5037094;28;20012;-89
2023/09/23 07:00:52;;;;;;;;;;;;;;;24.49;60.35;101496.78;5039893;28;19923;-90
2023/09/23 07:03:17;;;;;;;;;;;;;;;24.47;60.33;101499.44;5016467;28;20383;-89
2023/09/23 07:05:43;;;;;;;;;;;;;;;24.48;60.49;101503.00;5044441;28;19917;-89
2023/09/23 07:08:09;;;;;;;;;;;;;;;24.48;60.34;101509.22;5036017;28;19921;-90
2023/09/23 07:10:36;;;;;;;;;;;;;;;24.47;60.73;101507.44;5025430;28;21074;-90
2023/09/23 07:13:04;;;;;;;;;;;;;;;24.47;60.36;101509.19;5021079;28;19916;-91
2023/09/23 07:15:48;;;;;;;;;;;;;;;24.49;60.52;101511.06;5021862;28;20386;-92
2023/09/23 07:18:14;;;;;;;;;;;;;;;24.48;60.33;101519.00;5034524;28;19970;-91
2023/09/23 07:20:40;;;;;;;;;;;;;;;24.47;60.69;101517.19;5013136;28;19928;-90
2023/09/23 07:23:05;;;;;;;;;;;;;;;24.43;60.48;101516.31;5033632;28;19924;-90
2023/09/23 07:25:40;;;;;;;;;;;;;;;24.47;60.55;101512.78;5019734;28;20362;-87
2023/09/23 07:28:06;;;;;;;;;;;;;;;24.49;60.33;101510.13;5017221;28;19923;-92
2023/09/23 07:30:35;;;;;;;;;;;;;;;24.52;60.24;101513.75;5022266;28;19979;-88
2023/09/23 07:33:01;;;;;;;;;;;;;;;24.53;60.23;101512.88;5044944;28;19946;-89
2023/09/23 07:35:33;;;;;;;;;;;;;;;24.54;60.17;101516.44;5031935;28;19917;-89
2023/09/23 07:38:00;;;;;;;;;;;;;;;24.50;60.42;101519.94;5035837;28;20008;-91
2023/09/23 07:40:27;;;;;;;;;;;;;;;24.48;60.37;101525.25;5033201;28;19917;-90
2023/09/23 07:42:52;;;;;;;;;;;;;;;24.42;60.54;101517.16;5030391;28;19928;-90
2023/09/23 07:45:18;;;;;;;;;;;;;;;24.41;60.58;101518.06;5019754;28;20378;-89
2023/09/23 07:47:45;;;;;;;;;;;;;;;24.44;60.69;101522.53;5033703;28;20305;-89
2023/09/23 07:50:11;;;;;;;;;;;;;;;24.45;60.53;101521.63;5006992;28;20036;-89
2023/09/23 07:52:36;;;;;;;;;;;;;;;24.39;61.23;101515.38;5036184;28;20417;-88
2023/09/23 07:55:02;;;;;;;;;;;;;;;24.44;60.70;101517.19;5033415;28;19921;-88
2023/09/23 07:57:28;;;;;;;;;;;;;;;24.45;60.88;101521.63;5048412;28;19917;-88
2023/09/23 07:59:56;;;;;;;;;;;;;;;24.47;60.64;101519.88;5045811;28;19913;-87
2023/09/23 08:02:22;;;;;;;;;;;;;;;24.46;60.70;101510.09;5041799;28;19916;-87
2023/09/23 08:04:47;;;;;;;;;;;;;;;24.49;60.51;101508.38;5052709;28;19920;-84
2023/09/23 08:07:13;;;;;;;;;;;;;;;24.49;60.60;101497.69;5033999;28;19921;-87
2023/09/23 08:09:38;;;;;;;;;;;;;;;24.45;60.83;101503.88;5028714;28;20011;-87
2023/09/23 08:12:04;;;;;;;;;;;;;;;24.43;60.83;101500.28;5041212;28;20007;-87
2023/09/23 08:14:30;;;;;;;;;;;;;;;24.43;60.58;101508.28;5020583;28;20024;-88
2023/09/23 08:16:58;;;;;;;;;;;;;;;24.43;60.65;101504.75;5051460;28;20008;-88
2023/09/23 08:19:24;;;;;;;;;;;;;;;24.41;60.76;101504.72;5051423;28;20348;-86
2023/09/23 08:21:52;;;;;;;;;;;;;;;24.36;61.17;101506.44;5031714;28;19916;-87
2023/09/23 08:24:17;;;;;;;;;;;;;;;24.35;60.91;101513.56;5050107;28;19983;-85
2023/09/23 08:26:43;;;;;;;;;;;;;;;24.36;61.04;101512.69;5033744;28;20374;-85
2023/09/23 08:29:11;;;;;;;;;;;;;;;24.39;61.13;101511.81;5016280;28;20452;-86
2023/09/23 08:31:37;;;;;;;;;;;;;;;24.33;61.65;101509.09;5020926;28;19913;-87
2023/09/23 08:34:04;;;;;;;;;;;;;;;24.37;61.01;101508.25;5044445;28;19939;-87
2023/09/23 08:36:29;;;;;;;;;;;;;;;24.34;61.24;101509.13;5039869;28;19913;-87
2023/09/23 08:38:55;;;;;;;;;;;;;;;24.37;61.56;101505.56;5031512;28;19925;-87
2023/09/23 08:41:21;;;;;;;;;;;;;;;24.31;62.17;101503.72;5023722;28;19967;-86
2023/09/23 08:43:47;;;;;;;;;;;;;;;24.34;61.70;101506.44;5036081;28;19991;-86
2023/09/23 08:46:12;;;;;;;;;;;;;;;24.34;62.45;101511.78;5029813;28;20007;-86
2023/09/23 08:48:38;;;;;;;;;;;;;;;24.34;62.46;101503.78;5034118;28;19932;-86
2023/09/23 08:51:06;;;;;;;;;;;;;;;24.35;61.88;101513.56;5043232;28;20436;-87
2023/09/23 08:53:34;;;;;;;;;;;;;;;24.38;61.93;101510.00;5042935;28;19917;-85
2023/09/23 08:55:59;;;;;;;;;;;;;;;24.38;62.88;101512.69;5008150;28;20027;-86
2023/09/23 08:58:25;;;;;;;;;;;;;;;24.35;63.09;101515.34;5047661;28;20490;-85
2023/09/23 09:00:52;;;;;;;;;;;;;;;24.36;62.90;101514.44;5046240;28;20012;-86
2023/09/23 09:03:18;;;;;;;;;;;;;;;24.38;63.35;101518.94;5025900;28;19917;-85
2023/09/23 09:05:46;;;;;;;;;;;;;;;24.37;64.17;101519.81;5035210;28;19916;-87
2023/09/23 09:08:12;;;;;;;;;;;;;;;24.42;63.58;101518.94;5032151;28;19976;-87
2023/09/23 09:10:38;;;;;;;;;;;;;;;24.45;63.06;101517.22;5047258;28;20451;-86
2023/09/23 09:13:05;;;;;;;;;;;;;;;24.48;64.47;101513.66;5040585;28;19975;-86
2023/09/23 09:15:38;;;;;;;;;;;;;;;24.50;64.56;101511.94;5028340;28;19913;-87
2023/09/23 09:18:04;;;;;;;;;;;;;;;24.51;64.65;101503.03;5015033;28;19917;-86
2023/09/23 09:20:29;;;;;;;;;;;;;;;24.44;64.58;101510.06;5045987;28;19920;-86
2023/09/23 09:22:55;;;;;;;;;;;;;;;24.40;64.27;101508.25;5030713;28;20390;-85
2023/09/23 09:25:20;;;;;;;;;;;;;;;24.42;64.23;101503.81;5020095;28;21556;-85
2023/09/23 09:27:50;;;;;;;;;;;;;;;24.47;64.27;101495.84;5053337;28;20400;-86
2023/09/23 09:30:16;;;;;;;;;;;;;;;24.43;64.32;101500.28;5024006;28;19936;-86
2023/09/23 09:32:42;;;;;;;;;;;;;;;24.45;64.20;101493.19;5052810;28;19912;-86
2023/09/23 09:35:15;;;;;;;;;;;;;;;24.43;64.03;101496.72;5051360;28;19967;-86
2023/09/23 09:37:44;;;;;;;;;;;;;;;24.45;64.78;101490.50;5041318;28;19917;-87
2023/09/23 09:40:21;;;;;;;;;;;;;;;24.49;64.01;101496.78;5048456;28;19917;-88
2023/09/23 09:42:48;;;;;;;;;;;;;;;24.47;64.35;101494.09;5045346;28;19974;-86
2023/09/23 09:45:14;;;;;;;;;;;;;;;24.46;64.07;101492.28;5031260;28;19967;-86
2023/09/23 09:47:40;;;;;;;;;;;;;;;24.50;64.36;101485.25;5057469;28;19916;-86
2023/09/23 09:50:05;;;;;;;;;;;;;;;24.45;64.10;101487.84;5037925;28;19928;-86
2023/09/23 09:52:31;;;;;;;;;;;;;;;24.46;64.56;101483.41;5040485;28;19924;-86
2023/09/23 09:54:58;;;;;;;;;;;;;;;24.46;64.16;101489.63;5044420;28;20302;-89
2023/09/23 09:57:25;;;;;;;;;;;;;;;24.50;64.33;101482.56;5048464;28;20412;-87
2023/09/23 09:59:56;;;;;;;;;;;;;;;24.53;64.18;101496.84;5053907;28;22199;-86
2023/09/23 10:02:23;;;;;;;;;;;;;;;24.51;64.63;101487.94;5038731;28;19916;-87
2023/09/23 10:04:49;;;;;;;;;;;;;;;24.51;64.66;101490.59;5039101;28;19951;-86
2023/09/23 10:07:16;;;;;;;;;;;;;;;24.51;64.01;101485.25;5057591;28;19920;-85
2023/09/23 10:09:53;;;;;;;;;;;;;;;24.45;65.69;101484.25;5019754;28;19947;-85
2023/09/23 10:12:24;;;;;;;;;;;;;;;24.44;65.18;101471.81;5021041;28;19913;-86
2023/09/23 10:14:56;;;;;;;;;;;;;;;24.61;66.28;101479.97;5055581;28;19920;-87
2023/09/23 10:17:31;;;;;;;;;;;;;;;24.62;65.93;101476.41;5040052;28;19924;-88
2023/09/23 10:19:57;;;;;;;;;;;;;;;24.56;66.34;101472.81;5041577;28;19939;-87
2023/09/23 10:22:23;;;;;;;;;;;;;;;24.54;65.72;101479.94;5038272;28;19948;-86
2023/09/23 10:25:04;;;;;;;;;;;;;;;24.52;66.39;101478.13;5023876;28;19974;-86
2023/09/23 10:27:30;;;;;;;;;;;;;;;24.53;65.81;101471.91;5030745;28;20306;-88
2023/09/23 10:29:55;;;;;;;;;;;;;;;24.53;67.39;101471.91;5028065;28;19917;-86
2023/09/23 10:32:21;;;;;;;;;;;;;;;24.51;66.05;101471.00;5039583;28;19943;-86
2023/09/23 10:34:48;;;;;;;;;;;;;;;24.50;66.08;101463.88;5044078;28;19917;-84
2023/09/23 10:37:23;;;;;;;;;;;;;;;24.50;66.01;101472.78;5048504;28;19951;-87
2023/09/23 10:39:49;;;;;;;;;;;;;;;24.54;66.60;101466.56;5043098;28;19967;-88
2023/09/23 10:42:15;;;;;;;;;;;;;;;24.62;66.68;101466.66;5033713;28;19913;-87
2023/09/23 10:44:40;;;;;;;;;;;;;;;24.63;66.82;101463.06;5017599;28;19982;-87
2023/09/23 10:47:06;;;;;;;;;;;;;;;24.69;66.31;101467.59;5032192;28;19913;-85
2023/09/23 10:49:31;;;;;;;;;;;;;;;24.71;67.58;101465.81;5025461;28;19924;-87
2023/09/23 10:51:57;;;;;;;;;;;;;;;24.71;67.79;101464.03;5040984;28;19917;-86
2023/09/23 10:54:24;;;;;;;;;;;;;;;24.73;66.81;101461.38;5035599;28;19913;-86
2023/09/23 10:56:49;;;;;;;;;;;;;;;24.74;68.10;101465.81;5052346;28;19999;-86
2023/09/23 10:59:15;;;;;;;;;;;;;;;24.73;68.30;101467.59;5028929;28;20050;-84
2023/09/23 11:01:40;;;;;;;;;;;;;;;24.73;68.26;101462.25;5032537;28;20409;-84
2023/09/23 11:04:06;;;;;;;;;;;;;;;24.74;68.78;101456.06;5034062;28;19919;-85
2023/09/23 11:06:33;;;;;;;;;;;;;;;24.72;68.47;101455.16;5034269;28;19913;-85
2023/09/23 11:08:59;;;;;;;;;;;;;;;24.74;68.43;101452.47;5049363;28;19917;-86
2023/09/23 11:11:25;;;;;;;;;;;;;;;24.72;68.01;101452.47;5048553;28;20043;-85
2023/09/23 11:13:50;;;;;;;;;;;;;;;24.74;68.43;101448.03;5023790;28;20631;-85
2023/09/23 11:16:15;;;;;;;;;;;;;;;24.72;68.31;101452.47;5042349;28;19986;-86
2023/09/23 11:18:42;;;;;;;;;;;;;;;24.72;67.68;101452.47;5036735;28;19971;-85
2023/09/23 11:21:07;;;;;;;;;;;;;;;24.67;67.54;101448.88;5032134;28;19913;-86
2023/09/23 11:23:33;;;;;;;;;;;;;;;24.63;67.36;101440.81;5049180;28;20417;-85
2023/09/23 11:25:59;;;;;;;;;;;;;;;24.66;67.41;101443.50;5051761;28;19917;-87
2023/09/23 11:28:25;;;;;;;;;;;;;;;24.67;67.02;101438.19;5049560;28;19913;-85
2023/09/23 11:30:51;;;;;;;;;;;;;;;24.71;66.70;101437.31;5040041;28;20016;-86
2023/09/23 11:33:16;;;;;;;;;;;;;;;24.78;66.20;101440.91;5042358;28;19920;-86
2023/09/23 11:35:42;;;;;;;;;;;;;;;24.87;66.55;101440.06;5045962;28;19913;-86
2023/09/23 11:38:08;;;;;;;;;;;;;;;24.89;66.62;101436.56;5034471;28;20352;-86
2023/09/23 11:40:36;;;;;;;;;;;;;;;24.92;66.39;101427.66;5034492;28;19913;-86
2023/09/23 11:43:02;;;;;;;;;;;;;;;24.97;66.12;101439.25;5017035;28;20497;-86
2023/09/23 11:45:28;;;;;;;;;;;;;;;24.99;66.85;101433.00;5034767;28;19919;-86
2023/09/23 11:47:56;;;;;;;;;;;;;;;25.01;66.16;101425.03;5041504;28;20318;-87
2023/09/23 11:50:21;;;;;;;;;;;;;;;24.98;66.35;101428.56;5016930;28;19924;-87
2023/09/23 11:52:47;;;;;;;;;;;;;;;25.00;65.90;101433.94;5032596;28;19913;-87
2023/09/23 11:55:13;;;;;;;;;;;;;;;24.99;65.72;101426.78;5050137;28;19912;-87
2023/09/23 11:57:39;;;;;;;;;;;;;;;24.98;65.81;101422.34;5034862;28;19920;-87
2023/09/23 12:00:09;;;;;;;;;;;;;;;25.06;65.85;101417.94;5032961;28;20317;-86
2023/09/23 12:02:35;;;;;;;;;;;;;;;25.12;65.91;101423.28;5052361;28;19967;-87
2023/09/23 12:05:01;;;;;;;;;;;;;;;25.10;65.63;101416.16;5038641;28;20337;-87
2023/09/23 12:07:26;;;;;;;;;;;;;;;25.11;65.50;101415.28;5021469;28;19921;-87
2023/09/23 12:09:52;;;;;;;;;;;;;;;25.10;66.00;101411.69;5045981;28;19925;-87
2023/09/23 12:12:18;;;;;;;;;;;;;;;25.09;65.32;101420.59;5032709;28;19913;-86
2023/09/23 12:14:44;;;;;;;;;;;;;;;25.19;64.09;101414.41;5033324;28;19913;-87
2023/09/23 12:17:11;;;;;;;;;;;;;;;25.19;64.28;101411.75;5041092;28;20337;-87
2023/09/23 12:19:36;;;;;;;;;;;;;;;25.16;64.23;101417.06;5014501;28;19913;-86
2023/09/23 12:22:02;;;;;;;;;;;;;;;25.19;64.28;101411.75;5032032;28;19913;-87
2023/09/23 12:24:27;;;;;;;;;;;;;;;25.23;63.92;101414.44;5048841;28;19920;-85
2023/09/23 12:26:53;;;;;;;;;;;;;;;25.23;63.27;101419.78;5034070;28;19923;-86
2023/09/23 12:29:18;;;;;;;;;;;;;;;25.26;63.89;101414.47;5047176;28;19921;-86
2023/09/23 12:31:44;;;;;;;;;;;;;;;25.19;63.71;101417.09;5033203;28;19949;-86